Tiempo atmosférico en la estación meteorológica de Alcuescar, Cáceres (460 m.)



Fecha
DESCASC
Temp. máxima en grados centígrados (hora)
DESCASC
Temp. mínima en grados centígrados (hora)
DESCASC
Temp. media en grados centígrados
DESCASC
Racha de viento máxima en m/sg (hora)
DESCASC
Velocidad máxima media en intervalos de 10 minutos(hora)
DESCASC
Precipitaciones diarias en mm
DESCASC
Precipitaciones de 00:00 a 06:00 en mm
DESCASC
Precipitaciones de 06:00 a 12:00 en mm
DESCASC
Precipitaciones de 12:00 a 18:00 en mm
DESCASC
Precipitaciones de 18:00 a 24:00 en mm
DESCASC
26-11-2020 10 (14:40) 7.8 (23:59) 8.9 14.17 (02:00) 6.67 (11:40) 12.6 7.2 1.4 3.8 0.2
25-11-2020 11.9 (15:10) 7.6 (06:10) 9.7 10.56 (15:10) 6.94 (10:10) 15.2 0 4.4 3.6 7.2
24-11-2020 15.5 (14:50) 6.5 (08:10) 11 6.67 (07:50) 4.72 (07:30) 0 0 0 0 0
23-11-2020 17.7 (15:40) 7.1 (08:10) 12.4 6.39 (09:50) 4.72 (09:50) 0 0 0 0 0
22-11-2020 18.9 (16:20) 6.8 (00:00) 12.8 4.44 (01:40) 3.61 (05:30) 0 0 0 0 0
21-11-2020 18.5 (15:00) 4.5 (00:00) 11.5 6.67 (11:30) 4.44 (19:50) 0 0 0 0 0
20-11-2020 19.4 (16:00) 8.1 (00:00) 13.8 4.17 (20:20) 3.06 (21:20) 0 0 0 0 0
19-11-2020 21.2 (15:50) 7.7 (00:00) 14.5 7.5 (12:10) 4.17 (12:10) 0 0 0 0 0
18-11-2020 22.3 (15:30) 11.2 (00:00) 16.7 7.78 (11:50) 5.83 (10:20) 0 0 0 0 0
17-11-2020 16.9 (16:50) 10.4 (00:00) 13.6 8.61 (09:40) 6.11 (11:00) 0.4 0.2 0.2 0 0
16-11-2020 19.8 (14:40) 12.9 (00:00) 16.3 4.44 (16:10) 3.33 (16:20) 0 0 0 0 0
15-11-2020 21.7 (15:40) 13.7 (00:00) 17.7 6.94 (11:40) 4.72 (08:10) 0 0 0 0 0
14-11-2020 16.7 (17:10) 12.8 (00:00) 14.8 7.22 (09:50) 4.72 (06:30) 4 0 2.6 1.2 0.2
13-11-2020 16.6 (15:00) 10.2 (00:00) 13.4 7.5 (09:10) 5.28 (09:00) 0 0 0 0 0
12-11-2020 19.3 (15:00) 11 (00:00) 15.1 8.33 (14:00) 4.72 (13:30) 0 0 0 0 0
11-11-2020 19.2 (14:20) 9.2 (00:00) 14.2 8.61 (10:50) 5.83 (11:00) 0 0 0 0 0
10-11-2020 19.9 (15:10) 7.7 (00:00) 13.8 5 (14:40) 3.06 (14:40) 0.2 0 0.2 0 0
09-11-2020 19 (15:40) 10.1 (00:00) 14.6 4.44 (00:30) 3.06 (00:40) 7.8 7.6 0.2 0 0
08-11-2020 19.3 (14:40) 10.2 (00:00) 14.7 8.33 (07:30) 6.11 (07:20) 11 0 0 0.2 10.8
07-11-2020 17.7 (16:00) 11 (00:00) 14.4 8.89 (13:30) 5.56 (10:00) 11.4 10 1.4 0 0
06-11-2020 18.6 (14:30) 12.4 (00:00) 15.5 14.17 (17:40) 8.89 (10:30) 0.4 0.2 0 0 0.2
05-11-2020 14 (12:40) 11.5 (00:00) 12.8 16.67 (06:40) 9.17 (04:30) 14.2 6.8 6.2 1.2 0
04-11-2020 14.4 (12:50) 10.6 (00:00) 12.5 8.61 (22:10) 4.72 (22:00) 15.8 0 0 6.2 9.6
03-11-2020 20.5 (16:30) 12.5 (00:00) 16.5 6.11 (07:50) 3.89 (07:50) 0.2 0 0.2 0 0
02-11-2020 21.2 (14:40) 13.5 (00:00) 17.4 5 (14:00) 2.78 (17:20) 0 0 0 0 0
01-11-2020 24.2 (14:40) 12.3 (00:00) 18.3 4.17 (15:30) 2.78 (15:30) 0 0 0 0 0
31-10-2020 24.5 (15:10) 11.2 (00:00) 17.8 4.17 (16:10) 2.22 (11:10) 0 0 0 0 0
30-10-2020 24.7 (15:00) 13.3 (00:00) 19 8.89 (10:50) 5.56 (10:20) 0 0 0 0 0
29-10-2020 22 (15:50) 12.3 (00:00) 17.2 10 (13:20) 6.67 (13:30) 0 0 0 0 0
28-10-2020 17.9 (13:50) 12.1 (00:00) 15 4.17 (13:00) 2.22 (11:30) 0 0 0 0 0

Gráficas

Temp. máximas Temp. mínimas Temp. medias Precipitaciones Rachas de viento máximas Velocidades máximas media en intervalos de 10 minutos

Datos horarios

Fecha y hora oficial Temperatura (ºC) Velocidad del viento (km/h) Dirección del viento Racha (km/h) Dirección de racha Precipitación (mm) Presión (hPa) Tendencia (hPa) Humedad (%)
2020-11-26 23:00:00 8.8 11 Este 28 Este 0 -- -- 90
2020-11-26 22:00:00 9.3 17 Este 29 Este 0 -- -- 91
2020-11-26 21:00:00 8.9 15 Este 25 Este 0 -- -- 96
2020-11-26 20:00:00 8.7 14 Este 24 Este 0 -- -- 99
2020-11-26 19:00:00 8.8 10 Este 23 Sudeste 0.2 -- -- 99
2020-11-26 18:00:00 8.8 12 Este 28 Sudeste 0 -- -- 99
2020-11-26 17:00:00 9.4 10 Sudeste 23 Este 0 -- -- 99
2020-11-26 16:00:00 9.6 12 Sudeste 27 Sudeste 1.8 -- -- 99
2020-11-26 15:00:00 9.8 11 Sudeste 22 Este 0.6 -- -- 100
2020-11-26 14:00:00 9.7 15 Sudeste 31 Sudeste 0.8 -- -- 100
2020-11-26 13:00:00 9.8 14 Sudeste 31 Sudeste 0.6 -- -- 100
2020-11-26 12:00:00 9.5 23 Sudeste 41 Sudeste 0.6 -- -- 100
2020-11-26 11:00:00 9.4 19 Sudeste 33 Este 0.4 -- -- 100
2020-11-26 10:00:00 9.2 15 Sudeste 26 Sudeste 0.4 -- -- 100
2020-11-26 09:00:00 9.1 18 Sudeste 29 Sudeste 0 -- -- 100
2020-11-26 08:00:00 9.1 14 Sudeste 28 Este 0 -- -- 100
2020-11-26 07:00:00 8.7 10 Sudeste 19 Sudeste 0 -- -- 100
2020-11-26 06:00:00 9 15 Sudeste 27 Este 0.4 -- -- 100
2020-11-26 05:00:00 8.8 13 Sudeste 27 Sudeste 0.8 -- -- 100
2020-11-26 04:00:00 8.5 20 Sudeste 36 Sudeste 0.4 -- -- 100
2020-11-26 03:00:00 9.2 17 Sudeste 31 Sudeste 0.4 -- -- 100
2020-11-26 02:00:00 9.6 24 Sudeste 51 Este 2.2 -- -- 100
2020-11-26 01:00:00 9.5 23 Este 37 Sudeste 3 -- -- 99
2020-11-26 00:00:00 9.7 17 Sudeste 29 Sudeste 2.6 -- -- 99
2020-11-25 23:00:00 9.9 14 Sudeste 30 Sudeste 2.4 -- -- 98
2020-11-25 22:00:00 10.2 19 Sudeste 30 Sudeste 0 -- -- 98
2020-11-25 21:00:00 10.5 14 Sudeste 22 Sudeste 0 -- -- 99
2020-11-25 20:00:00 10.6 14 Sudeste 22 Sudeste 0 -- -- 99
2020-11-25 19:00:00 10.8 13 Sudeste 33 Sudeste 2.2 -- -- 99
2020-11-25 18:00:00 11.4 15 Sudeste 26 Sudeste 0.6 -- -- 99
2020-11-25 17:00:00 11.7 18 Sudeste 34 Sudeste 0.4 -- -- 98
2020-11-25 16:00:00 11.9 22 Sudeste 38 Sudeste 0 -- -- 98
2020-11-25 15:00:00 11.6 23 Sudeste 37 Este 0 -- -- 100
2020-11-25 14:00:00 11.2 19 Sudeste 37 Sudeste 0.2 -- -- 100
2020-11-25 13:00:00 10.5 21 Sudeste 33 Sudeste 2.4 -- -- 100
2020-11-25 12:00:00 9.6 14 Sudeste 28 Sudeste 3 -- -- 99
2020-11-25 11:00:00 9.5 19 Sudeste 37 Sudeste 1.2 -- -- 97
2020-11-25 10:00:00 9.3 22 Sudeste 35 Sudeste 0.2 -- -- 98
2020-11-25 09:00:00 8.6 18 Sudeste 27 Sudeste 0 -- -- 99
2020-11-25 08:00:00 8.2 17 Sudeste 25 Sudeste 0 -- -- 99
2020-11-25 07:00:00 7.9 16 Sudeste 23 Sudeste 0 -- -- 99
2020-11-25 06:00:00 7.8 13 Sudeste 20 Sudeste 0 -- -- 97
2020-11-25 05:00:00 8.7 9 Sudeste 14 Sudeste 0 -- -- 94
2020-11-25 04:00:00 8.7 9 Sur 14 Sur 0 -- -- 95
2020-11-25 03:00:00 8.9 6 Sudeste 14 Sudeste 0 -- -- 92
2020-11-25 02:00:00 9.3 8 Sudeste 15 Sudeste 0 -- -- 90
2020-11-25 01:00:00 10.5 9 Sudeste 13 Sudeste 0 -- -- 87
2020-11-25 00:00:00 10.4 8 Sudeste 14 Sudeste 0 -- -- 88
2020-11-24 23:00:00 9.9 10 Sudeste 14 Sudeste 0 -- -- 88
2020-11-24 22:00:00 9.7 9 Sudeste 13 Sudeste 0 -- -- 86
2020-11-24 21:00:00 10.8 5 Sur 7 Sur 0 -- -- 81
2020-11-24 20:00:00 11.2 4 Sur 6 Sur 0 -- -- 79
2020-11-24 19:00:00 11.6 3 Sur -- -- 0 -- -- 77
2020-11-24 18:00:00 12.9 4 Sudoeste 12 Oeste 0 -- -- 72
2020-11-24 17:00:00 14.5 7 Oeste 17 Sudoeste 0 -- -- 66
2020-11-24 16:00:00 14.9 10 Sudoeste 19 Sudoeste 0 -- -- 66
2020-11-24 15:00:00 15.4 11 Sudoeste 19 Oeste 0 -- -- 68
2020-11-24 14:00:00 14.5 10 Sudoeste 18 Sur 0 -- -- 72
2020-11-24 13:00:00 13.7 8 Sudeste 15 Sudeste 0 -- -- 72
2020-11-24 12:00:00 11.6 10 Sudeste 18 Sudeste 0 -- -- 75
2020-11-24 11:00:00 9.3 13 Sudeste 19 Sudeste 0 -- -- 81
2020-11-24 10:00:00 8.7 13 Sudeste 20 Sudeste 0 -- -- 80
2020-11-24 09:00:00 6.8 13 Sudeste 21 Sudeste 0 -- -- 87
2020-11-24 08:00:00 6.6 16 Sudeste 24 Sudeste 0 -- -- 87
2020-11-24 07:00:00 7 15 Sudeste 20 Sudeste 0 -- -- 87
2020-11-24 06:00:00 6.9 12 Sudeste 16 Sudeste 0 -- -- 87
2020-11-24 05:00:00 7.5 12 Sudeste 15 Sudeste 0 -- -- 85
2020-11-24 04:00:00 7.6 10 Sudeste 19 Sudeste 0 -- -- 85
2020-11-24 03:00:00 8.6 11 Sudeste 16 Sudeste 0 -- -- 79
2020-11-24 02:00:00 9.4 14 Sudeste 18 Sudeste 0 -- -- 77
2020-11-24 01:00:00 9.1 10 Sudeste 18 Sudeste 0 -- -- 79
2020-11-24 00:00:00 10.1 11 Sudeste 13 Sudeste 0 -- -- 74
2020-11-23 23:00:00 9.7 5 Sudeste 6 Sudeste 0 -- -- 72
2020-11-23 22:00:00 9.8 0 Calma 5 Sudeste 0 -- -- 74
2020-11-23 21:00:00 10.7 5 Sudeste 7 Sudeste 0 -- -- 71
2020-11-23 20:00:00 11 5 Sudeste 7 Sudeste 0 -- -- 71
2020-11-23 19:00:00 12.1 6 Sudeste 10 Sudeste 0 -- -- 66
2020-11-23 18:00:00 14 8 Sudeste 14 Sudeste 0 -- -- 58
2020-11-23 17:00:00 16.5 8 Sudeste 17 Sudeste 0 -- -- 50
2020-11-23 16:00:00 17.4 9 Sudeste 14 Sudeste 0 -- -- 52
2020-11-23 15:00:00 17.5 7 Sudeste 15 Sudeste 0 -- -- 52
2020-11-23 14:00:00 17 6 Sudeste 15 Sudeste 0 -- -- 56
2020-11-23 13:00:00 16 5 Sudeste 18 Sudeste 0 -- -- 63
2020-11-23 12:00:00 14 11 Este 21 Sudeste 0 -- -- 67
2020-11-23 11:00:00 13.1 12 Sudeste 22 Sudeste 0 -- -- 76
2020-11-23 10:00:00 11.2 16 Sudeste 23 Sudeste 0 -- -- 82
2020-11-23 09:00:00 7.9 10 Sudeste 17 Sudeste 0 -- -- 95
2020-11-23 08:00:00 7.2 4 Nordeste 6 Nordeste 0 -- -- 91
2020-11-23 07:00:00 7.5 3 Este 9 Sudeste 0 -- -- 92
2020-11-23 06:00:00 7.5 0 Calma 6 Sudeste 0 -- -- 92
2020-11-23 05:00:00 7.6 7 Sudeste 13 Sudeste 0 -- -- 91
2020-11-23 04:00:00 8.1 9 Sudeste 10 Sudeste 0 -- -- 89
2020-11-23 03:00:00 8.9 0 Calma 4 Sudeste 0 -- -- 82
2020-11-23 02:00:00 7.8 2 Noroeste -- -- 0 -- -- 93
2020-11-23 01:00:00 7.6 3 Oeste 6 Oeste 0 -- -- 92
2020-11-23 00:00:00 8 4 Noroeste 8 Oeste 0 -- -- 90
2020-11-22 23:00:00 9 5 Noroeste 7 Noroeste 0 -- -- 87
2020-11-22 22:00:00 9.3 3 Noroeste 6 Oeste 0 -- -- 85
2020-11-22 21:00:00 10.4 3 Noroeste 8 Nordeste 0 -- -- 78
2020-11-22 20:00:00 12 6 Nordeste 9 Nordeste 0 -- -- 71
2020-11-22 19:00:00 13 6 Nordeste 8 Nordeste 0 -- -- 70
2020-11-22 18:00:00 15.1 5 Norte 11 Noroeste 0 -- -- 66
2020-11-22 17:00:00 17.7 5 Noroeste 10 Noroeste 0 -- -- 59
2020-11-22 16:00:00 18.8 0 Calma 9 Nordeste 0 -- -- 56
2020-11-22 15:00:00 18.3 2 Norte 10 Este 0 -- -- 56
2020-11-22 14:00:00 18.3 4 Sudeste 11 Sudeste 0 -- -- 57
2020-11-22 13:00:00 16.7 3 Este 11 Sudeste 0 -- -- 62
2020-11-22 12:00:00 16.2 8 Sudeste 15 Sudeste 0 -- -- 64
2020-11-22 11:00:00 14.3 10 Sudeste 16 Sudeste 0 -- -- 66
2020-11-22 10:00:00 11.9 12 Sudeste 16 Sudeste 0 -- -- 69
2020-11-22 09:00:00 7.4 5 Sudeste 7 Sudeste 0 -- -- 84
2020-11-22 08:00:00 7 2 Oeste 6 Sudeste 0 -- -- 83
2020-11-22 07:00:00 8.4 0 Calma 15 Sudeste 0 -- -- 77
2020-11-22 06:00:00 9.4 13 Sudeste 16 Sudeste 0 -- -- 73
2020-11-22 05:00:00 9.9 10 Sudeste 15 Sudeste 0 -- -- 70
2020-11-22 04:00:00 9.6 10 Sudeste 16 Sudeste 0 -- -- 70
2020-11-22 03:00:00 9.3 9 Sudeste 14 Sudeste 0 -- -- 70
2020-11-22 02:00:00 9.8 10 Sudeste 16 Sudeste 0 -- -- 68
2020-11-22 01:00:00 10.8 10 Sudeste 16 Sudeste 0 -- -- 62
2020-11-22 00:00:00 11 9 Sudeste 13 Sudeste 0 -- -- 62
2020-11-21 23:00:00 11.7 0 Calma 3 Este 0 -- -- 60
2020-11-21 22:00:00 11.9 3 Este 15 Este 0 -- -- 60
2020-11-21 21:00:00 12.3 8 Sudeste 21 Sudeste 0 -- -- 60
2020-11-21 20:00:00 13 16 Sudeste 24 Sudeste 0 -- -- 59
2020-11-21 19:00:00 13 14 Sudeste 19 Sudeste 0 -- -- 66
2020-11-21 18:00:00 15 10 Sudeste 20 Sudeste 0 -- -- 60
2020-11-21 17:00:00 17.2 13 Sudeste 19 Sudeste 0 -- -- 51
2020-11-21 16:00:00 18.1 12 Sudeste 17 Sudeste 0 -- -- 47
2020-11-21 15:00:00 18.5 7 Sudeste 15 Sudeste 0 -- -- 40
2020-11-21 14:00:00 17.5 9 Sudeste 18 Sudeste 0 -- -- 45
2020-11-21 13:00:00 16.2 10 Sudeste 19 Sudeste 0 -- -- 45
2020-11-21 12:00:00 14.5 10 Sudeste 24 Sudeste 0 -- -- 48
2020-11-21 11:00:00 12.8 10 Sudeste 17 Sudeste 0 -- -- 57
2020-11-21 10:00:00 7.2 4 Oeste 9 Oeste 0 -- -- 90
2020-11-21 09:00:00 5.1 5 Oeste 10 Norte 0 -- -- 96
2020-11-21 08:00:00 4.9 7 Norte 12 Norte 0 -- -- 95
2020-11-21 07:00:00 5.4 5 Noroeste 8 Oeste 0 -- -- 96
2020-11-21 06:00:00 5.8 5 Noroeste 7 Noroeste 0 -- -- 95
2020-11-21 05:00:00 6.1 5 Sudoeste 9 Oeste 0 -- -- 96
2020-11-21 04:00:00 6.8 5 Noroeste 9 Oeste 0 -- -- 93
2020-11-21 03:00:00 7.2 9 Oeste 12 Oeste 0 -- -- 93
2020-11-21 02:00:00 8.6 7 Norte 9 Norte 0 -- -- 89
2020-11-21 01:00:00 8.8 3 Oeste 10 Oeste 0 -- -- 89
2020-11-21 00:00:00 9.1 3 Oeste 9 Oeste 0 -- -- 90
2020-11-20 23:00:00 10 6 Noroeste 13 Noroeste 0 -- -- 86
2020-11-20 22:00:00 11.1 4 Noroeste 14 Norte 0 -- -- 82
2020-11-20 21:00:00 12.3 8 Norte 15 Norte 0 -- -- 78
2020-11-20 20:00:00 13 5 Noroeste 12 Norte 0 -- -- 82
2020-11-20 19:00:00 14.2 8 Nordeste 12 Nordeste 0 -- -- 79
2020-11-20 18:00:00 16.7 5 Norte 9 Norte 0 -- -- 72
2020-11-20 17:00:00 18.4 6 Norte 15 Norte 0 -- -- 67
2020-11-20 16:00:00 19.4 4 Noroeste 14 Noroeste 0 -- -- 63
2020-11-20 15:00:00 18.9 6 Noroeste 13 Noroeste 0 -- -- 66
2020-11-20 14:00:00 18.1 5 Norte 12 Oeste 0 -- -- 69
2020-11-20 13:00:00 16.6 5 Noroeste 13 Oeste 0 -- -- 75
2020-11-20 12:00:00 14.9 6 Oeste 12 Sudoeste 0 -- -- 87
2020-11-20 11:00:00 12.7 8 Oeste 11 Noroeste 0 -- -- 95
2020-11-20 10:00:00 10.1 5 Oeste 9 Oeste 0 -- -- 100
2020-11-20 09:00:00 8.3 5 Oeste 8 Oeste 0 -- -- 100
2020-11-20 08:00:00 8.2 6 Oeste 8 Oeste 0 -- -- 98
2020-11-20 07:00:00 8.7 4 Oeste 13 Norte 0 -- -- 98
2020-11-20 06:00:00 8.7 8 Norte 14 Norte 0 -- -- 98
2020-11-20 05:00:00 8.6 6 Noroeste 12 Oeste 0 -- -- 96
2020-11-20 04:00:00 9.8 6 Oeste 13 Norte 0 -- -- 94
2020-11-20 03:00:00 9.3 4 Noroeste 10 Noroeste 0 -- -- 94
2020-11-20 02:00:00 10.5 6 Noroeste 10 Oeste 0 -- -- 92
2020-11-20 01:00:00 11 8 Oeste 9 Oeste 0 -- -- 89
2020-11-20 00:00:00 11.7 5 Oeste 9 Oeste 0 -- -- 87
2020-11-19 23:00:00 12.9 8 Norte 12 Noroeste 0 -- -- 83
2020-11-19 22:00:00 12.8 8 Noroeste 10 Oeste 0 -- -- 84
2020-11-19 21:00:00 13.5 8 Oeste 12 Oeste 0 -- -- 82
2020-11-19 20:00:00 14.3 6 Noroeste 10 Noroeste 0 -- -- 81
2020-11-19 19:00:00 15.8 5 Oeste 13 Norte 0 -- -- 77
2020-11-19 18:00:00 18.3 6 Norte 17 Norte 0 -- -- 68
2020-11-19 17:00:00 20.7 10 Norte 18 Norte 0 -- -- 62
2020-11-19 16:00:00 21.2 10 Norte 18 Norte 0 -- -- 62
2020-11-19 15:00:00 20.2 10 Norte 18 Norte 0 -- -- 72
2020-11-19 14:00:00 18 10 Noroeste 18 Noroeste 0 -- -- 79
2020-11-19 13:00:00 14.8 12 Noroeste 27 Norte 0 -- -- 90
2020-11-19 12:00:00 13.5 10 Noroeste 17 Noroeste 0 -- -- 100
2020-11-19 11:00:00 11.4 7 Oeste 18 Noroeste 0 -- -- 100
2020-11-19 10:00:00 10.5 8 Noroeste 14 Noroeste 0 -- -- 100
2020-11-19 09:00:00 9.7 10 Noroeste 18 Noroeste 0 -- -- 100
2020-11-19 08:00:00 9.4 8 Noroeste 14 Noroeste 0 -- -- 100
2020-11-19 07:00:00 9.5 9 Noroeste 14 Noroeste 0 -- -- 100
2020-11-19 06:00:00 9.1 8 Noroeste 12 Noroeste 0 -- -- 100
2020-11-19 05:00:00 7.8 6 Oeste 9 Oeste 0 -- -- 100
2020-11-19 04:00:00 8.2 6 Oeste 13 Noroeste 0 -- -- 99
2020-11-19 03:00:00 9.1 5 Noroeste 9 Noroeste 0 -- -- 99
2020-11-19 02:00:00 9.5 5 Oeste 10 Oeste 0 -- -- 99
2020-11-19 01:00:00 10.1 6 Oeste 14 Oeste 0 -- -- 97
2020-11-19 00:00:00 11.5 9 Norte 13 Noroeste 0 -- -- 98
2020-11-18 23:00:00 11.8 7 Noroeste 13 Oeste 0 -- -- 97
2020-11-18 22:00:00 13 8 Oeste 12 Noroeste 0 -- -- 96
2020-11-18 21:00:00 13.7 6 Oeste 11 Noroeste 0 -- -- 95
2020-11-18 20:00:00 14.8 6 Noroeste 10 Noroeste 0 -- -- 92
2020-11-18 19:00:00 16.1 7 Norte 13 Nordeste 0 -- -- 87
2020-11-18 18:00:00 18.6 7 Norte 11 Norte 0 -- -- 81
2020-11-18 17:00:00 21.6 6 Sudeste 13 Sudeste 0 -- -- 66
2020-11-18 16:00:00 21.8 11 Sudeste 21 Este 0 -- -- 64
2020-11-18 15:00:00 21.8 14 Sudeste 21 Sudeste 0 -- -- 68
2020-11-18 14:00:00 20.9 15 Sudeste 21 Sudeste 0 -- -- 72
2020-11-18 13:00:00 20 14 Sudeste 26 Sudeste 0 -- -- 75
2020-11-18 12:00:00 18.6 18 Sudeste 28 Sudeste 0 -- -- 79
2020-11-18 11:00:00 16.9 21 Sudeste 28 Sudeste 0 -- -- 81
2020-11-18 10:00:00 15.2 21 Sudeste 27 Sudeste 0 -- -- 86
2020-11-18 09:00:00 12.9 16 Sudeste 24 Sudeste 0 -- -- 93
2020-11-18 08:00:00 12.5 18 Sudeste 24 Sudeste 0 -- -- 94
2020-11-18 07:00:00 12.3 16 Sudeste 24 Sudeste 0 -- -- 93
2020-11-18 06:00:00 12.6 16 Sudeste 22 Sudeste 0 -- -- 92
2020-11-18 05:00:00 12.8 17 Sudeste 21 Sudeste 0 -- -- 91
2020-11-18 04:00:00 13 14 Sudeste 19 Sudeste 0 -- -- 90
2020-11-18 03:00:00 13.4 13 Sudeste 17 Sudeste 0 -- -- 89
2020-11-18 02:00:00 13.7 13 Sudeste 19 Sudeste 0 -- -- 87
2020-11-18 01:00:00 13.7 12 Sudeste 19 Sudeste 0 -- -- 87
2020-11-18 00:00:00 14.1 13 Sudeste 18 Sudeste 0 -- -- 85
2020-11-17 23:00:00 14.3 15 Sudeste 22 Sudeste 0 -- -- 84
2020-11-17 22:00:00 14.3 12 Sudeste 17 Sudeste 0 -- -- 86
2020-11-17 21:00:00 14.5 12 Sudeste 17 Sudeste 0 -- -- 93
2020-11-17 20:00:00 14.3 11 Sudeste 14 Sudeste 0 -- -- 94
2020-11-17 19:00:00 14.4 10 Sudeste 14 Sudeste 0 -- -- 94
2020-11-17 18:00:00 15.6 10 Sudeste 18 Sudeste 0 -- -- 91
2020-11-17 17:00:00 16.9 13 Sudeste 20 Sudeste 0 -- -- 89
2020-11-17 16:00:00 15.9 14 Sudeste 24 Sudeste 0 -- -- 98
2020-11-17 15:00:00 14.6 15 Sudeste 25 Sudeste 0 -- -- 100
2020-11-17 14:00:00 14.3 16 Sudeste 25 Este 0 -- -- 100
2020-11-17 13:00:00 13.8 17 Sudeste 27 Sudeste 0 -- -- 100
2020-11-17 12:00:00 13.3 19 Sudeste 28 Sudeste 0 -- -- 100
2020-11-17 11:00:00 12.7 22 Sudeste 31 Sudeste 0 -- -- 100
2020-11-17 10:00:00 12.4 22 Sudeste 31 Sudeste 0 -- -- 100
2020-11-17 09:00:00 11.6 21 Sudeste 30 Sudeste 0 -- -- 100
2020-11-17 08:00:00 11.2 16 Sudeste 26 Sudeste 0.2 -- -- 100
2020-11-17 07:00:00 11 16 Sudeste 22 Sudeste 0 -- -- 100
2020-11-17 06:00:00 10.4 9 Sudeste 15 Sudeste 0 -- -- 100
2020-11-17 05:00:00 10.4 8 Sudeste 19 Sudeste 0 -- -- 100
2020-11-17 04:00:00 11.5 10 Sudeste 16 Sudeste 0 -- -- 99
2020-11-17 03:00:00 12.1 5 Sudeste 8 Sudeste 0 -- -- 99
2020-11-17 02:00:00 12.8 3 Este 6 Norte 0.2 -- -- 99
2020-11-17 01:00:00 12.9 2 Norte 3 Norte 0 -- -- 99
2020-11-17 00:00:00 13.2 0 Calma 5 Este 0 -- -- 99
2020-11-16 23:00:00 13.3 4 Este 4 Este 0 -- -- 99
2020-11-16 22:00:00 13.2 -- -- -- -- 0 -- -- 99
2020-11-16 21:00:00 13.4 -- -- -- -- 0 -- -- 98
2020-11-16 20:00:00 13.9 0 Calma 6 Noroeste 0 -- -- 97
2020-11-16 19:00:00 14.3 3 Norte 8 Noroeste 0 -- -- 95
2020-11-16 18:00:00 16 6 Oeste 12 Sudoeste 0 -- -- 90
2020-11-16 17:00:00 17.9 7 Sudoeste 16 Oeste 0 -- -- 84
2020-11-16 16:00:00 18.8 8 Noroeste 12 Oeste 0 -- -- 80
2020-11-16 15:00:00 19.1 5 Noroeste 12 Norte 0 -- -- 76
2020-11-16 14:00:00 19.2 5 Sudoeste 11 Sudoeste 0 -- -- 77
2020-11-16 13:00:00 17.4 5 Noroeste 11 Oeste 0 -- -- 86
2020-11-16 12:00:00 15.6 6 Oeste 10 Oeste 0 -- -- 94
2020-11-16 11:00:00 14.7 4 Oeste 9 Noroeste 0 -- -- 100
2020-11-16 10:00:00 14.9 3 Noroeste 5 Norte 0 -- -- 100
2020-11-16 09:00:00 13.6 2 Nordeste 8 Nordeste 0 -- -- 100
2020-11-16 08:00:00 13.8 3 Norte 9 Oeste 0 -- -- 99
2020-11-16 07:00:00 14.3 4 Noroeste 6 Noroeste 0 -- -- 99
2020-11-16 06:00:00 14.8 3 Oeste 9 Sudoeste 0 -- -- 98
2020-11-16 05:00:00 15.2 4 Sudoeste 9 Sudoeste 0 -- -- 98
2020-11-16 04:00:00 15.8 4 Sudoeste 13 Sudoeste 0 -- -- 97
2020-11-16 03:00:00 15.9 5 Sur 9 Sur 0 -- -- 95
2020-11-16 02:00:00 15.7 3 Sur 9 Oeste 0 -- -- 95
2020-11-16 01:00:00 16.1 6 Noroeste 13 Noroeste 0 -- -- 93
2020-11-16 00:00:00 16.3 3 Noroeste 6 Oeste 0 -- -- 92
2020-11-15 23:00:00 16.2 4 Sudeste 13 Sudeste 0 -- -- 92
2020-11-15 22:00:00 16.8 5 Sur 13 Sudeste 0 -- -- 91
2020-11-15 21:00:00 17.3 7 Sudeste 10 Sudeste 0 -- -- 91
2020-11-15 20:00:00 17.4 6 Sudeste 10 Sudeste 0 -- -- 90
2020-11-15 19:00:00 18 5 Sudeste 8 Sudeste 0 -- -- 87
2020-11-15 18:00:00 19.3 3 Oeste 9 Oeste 0 -- -- 80
2020-11-15 17:00:00 20.5 8 Sudoeste 18 Sudoeste 0 -- -- 74
2020-11-15 16:00:00 21.5 12 Sudoeste 20 Sudoeste 0 -- -- 70
2020-11-15 15:00:00 21.3 12 Sur 23 Sur 0 -- -- 74
2020-11-15 14:00:00 20.7 12 Sur 21 Sudeste 0 -- -- 76
2020-11-15 13:00:00 18.8 10 Sudeste 21 Sudeste 0 -- -- 88
2020-11-15 12:00:00 16.9 12 Sudeste 25 Este 0 -- -- 96
2020-11-15 11:00:00 15.9 10 Sudeste 20 Sudeste 0 -- -- 100
2020-11-15 10:00:00 14.7 12 Sudeste 22 Sudeste 0 -- -- 100
2020-11-15 09:00:00 13.9 14 Sudeste 24 Sudeste 0 -- -- 100
2020-11-15 08:00:00 13.7 15 Sudeste 23 Sudeste 0 -- -- 100
2020-11-15 07:00:00 13.7 10 Sudeste 17 Sudeste 0 -- -- 100
2020-11-15 06:00:00 13.7 8 Sudeste 17 Sudeste 0 -- -- 100
2020-11-15 05:00:00 13.7 11 Sudeste 21 Sudeste 0 -- -- 100
2020-11-15 04:00:00 13.9 13 Sudeste 20 Sudeste 0 -- -- 100
2020-11-15 03:00:00 14 14 Sudeste 23 Sudeste 0 -- -- 100
2020-11-15 02:00:00 14.2 15 Sudeste 19 Sudeste 0 -- -- 100
2020-11-15 01:00:00 14.2 12 Sudeste 18 Sudeste 0 -- -- 99
2020-11-15 00:00:00 14.3 12 Sudeste 20 Sudeste 0 -- -- 99
2020-11-14 23:00:00 14.2 9 Sudeste 15 Sudeste 0 -- -- 98
2020-11-14 22:00:00 14.5 6 Sudeste 12 Sudoeste 0.2 -- -- 96
2020-11-14 21:00:00 15.2 6 Sudoeste 13 Sudoeste 0 -- -- 92
2020-11-14 20:00:00 14.8 4 Sur 8 Sudoeste 0 -- -- 94
2020-11-14 19:00:00 14.6 3 Sur 10 Sudoeste 0 -- -- 95
2020-11-14 18:00:00 15.8 7 Sudoeste 15 Sudoeste 0 -- -- 90
2020-11-14 17:00:00 16.5 8 Oeste 15 Sudoeste 0 -- -- 89
2020-11-14 16:00:00 16.4 10 Sudoeste 20 Sudoeste 0 -- -- 90
2020-11-14 15:00:00 14.9 5 Sudeste 15 Sudeste 0.2 -- -- 99
2020-11-14 14:00:00 14.6 10 Sudeste 17 Sudeste 0.2 -- -- 99
2020-11-14 13:00:00 14.1 13 Sudeste 20 Sudeste 0.8 -- -- 99
2020-11-14 12:00:00 13.7 15 Sudeste 20 Sudeste 0.6 -- -- 99
2020-11-14 11:00:00 13.4 14 Sudeste 24 Sudeste 0.6 -- -- 99
2020-11-14 10:00:00 13.2 13 Sudeste 26 Sudeste 1 -- -- 99
2020-11-14 09:00:00 12.9 11 Sudeste 19 Sudeste 0.4 -- -- 98
2020-11-14 08:00:00 12.8 13 Sudeste 22 Sudeste 0 -- -- 98
2020-11-14 07:00:00 12.8 15 Sudeste 23 Sudeste 0 -- -- 98
2020-11-14 06:00:00 12.8 12 Sudeste 20 Sudeste 0 -- -- 97
2020-11-14 05:00:00 12.9 12 Sudeste 19 Sudeste 0 -- -- 96
2020-11-14 04:00:00 13.1 10 Sudeste 17 Sudeste 0 -- -- 92
2020-11-14 03:00:00 13.5 10 Sudeste 17 Sudeste 0 -- -- 88
2020-11-14 02:00:00 14 12 Sudeste 18 Sudeste 0 -- -- 85
2020-11-14 01:00:00 14 10 Sudeste 17 Sudeste 0 -- -- 84
2020-11-14 00:00:00 14.1 11 Sudeste 17 Sudeste 0 -- -- 84
2020-11-13 23:00:00 13.7 10 Sudeste 15 Sudeste 0 -- -- 85
2020-11-13 22:00:00 14 9 Sudeste 13 Sudeste 0 -- -- 83
2020-11-13 21:00:00 13.8 9 Sudeste 13 Sudeste 0 -- -- 84
2020-11-13 20:00:00 14 9 Sudeste 14 Sudeste 0 -- -- 84
2020-11-13 19:00:00 14.1 9 Sudeste 14 Sudeste 0 -- -- 84
2020-11-13 18:00:00 14.7 10 Sudeste 13 Sudeste 0 -- -- 82
2020-11-13 17:00:00 15.2 7 Sudeste 18 Sudeste 0 -- -- 79
2020-11-13 16:00:00 16 11 Sudeste 22 Sudeste 0 -- -- 75
2020-11-13 15:00:00 16.6 12 Sudeste 23 Este 0 -- -- 73
2020-11-13 14:00:00 16 13 Sudeste 22 Sudeste 0 -- -- 76
2020-11-13 13:00:00 15.8 15 Sudeste 23 Este 0 -- -- 76
2020-11-13 12:00:00 15.5 13 Sudeste 27 Sudeste 0 -- -- 75
2020-11-13 11:00:00 13.2 18 Sudeste 26 Sudeste 0 -- -- 80
2020-11-13 10:00:00 11.7 19 Sudeste 27 Sudeste 0 -- -- 81
2020-11-13 09:00:00 10.7 19 Sudeste 26 Sudeste 0 -- -- 83
2020-11-13 08:00:00 10.2 15 Sudeste 20 Sudeste 0 -- -- 84
2020-11-13 07:00:00 10.6 13 Sudeste 21 Sudeste 0 -- -- 81
2020-11-13 06:00:00 10.4 15 Sudeste 19 Sudeste 0 -- -- 81
2020-11-13 05:00:00 10.4 14 Sudeste 20 Sudeste 0 -- -- 82
2020-11-13 04:00:00 10.7 13 Sudeste 18 Sudeste 0 -- -- 81
2020-11-13 03:00:00 11 12 Sudeste 17 Sudeste 0 -- -- 80
2020-11-13 02:00:00 11 12 Sudeste 17 Sudeste 0 -- -- 80
2020-11-13 01:00:00 11.3 12 Sudeste 16 Sudeste 0 -- -- 74
2020-11-13 00:00:00 11.3 10 Sudeste 13 Este 0 -- -- 71
2020-11-12 23:00:00 11.8 4 Sur 10 Sudeste 0 -- -- 80
2020-11-12 22:00:00 11 4 Oeste 7 Sudoeste 0 -- -- 85
2020-11-12 21:00:00 12.4 0 Calma 10 Nordeste 0 -- -- 78
2020-11-12 20:00:00 13.3 8 Nordeste 11 Nordeste 0 -- -- 73
2020-11-12 19:00:00 14.4 4 Nordeste 8 Este 0 -- -- 70
2020-11-12 18:00:00 17 4 Este 15 Este 0 -- -- 61
2020-11-12 17:00:00 18.2 7 Este 19 Este 0 -- -- 57
2020-11-12 16:00:00 18.4 11 Este 24 Sudeste 0 -- -- 54
2020-11-12 15:00:00 19.3 15 Sudeste 27 Este 0 -- -- 55
2020-11-12 14:00:00 19.2 16 Sudeste 30 Sudeste 0 -- -- 57
2020-11-12 13:00:00 17.7 13 Este 22 Este 0 -- -- 62
2020-11-12 12:00:00 15.4 9 Sudeste 19 Sudeste 0 -- -- 71
2020-11-12 11:00:00 13.8 10 Sudeste 17 Sudeste 0 -- -- 80
2020-11-12 10:00:00 12.8 6 Sudeste 10 Sudeste 0 -- -- 82
2020-11-12 09:00:00 11.8 7 Sudeste 13 Sudeste 0 -- -- 83
2020-11-12 08:00:00 11.3 4 Sudeste 12 Sudeste 0 -- -- 82
2020-11-12 07:00:00 11.6 10 Sudeste 14 Sudeste 0 -- -- 83
2020-11-12 06:00:00 11.9 10 Sudeste 16 Sudeste 0 -- -- 82
2020-11-12 05:00:00 11.9 9 Sudeste 15 Sudeste 0 -- -- 82
2020-11-12 04:00:00 12.2 12 Sudeste 15 Sudeste 0 -- -- 81
2020-11-12 03:00:00 12.3 10 Sudeste 13 Sudeste 0 -- -- 80
2020-11-12 02:00:00 12.3 4 Este 10 Sudeste 0 -- -- 80
2020-11-12 01:00:00 12.4 0 Calma 5 Noroeste 0 -- -- 84
2020-11-12 00:00:00 11.8 0 Calma 7 Oeste 0 -- -- 87
2020-11-11 23:00:00 12.2 5 Oeste 8 Oeste 0 -- -- 84
2020-11-11 22:00:00 13.5 4 Sudeste 9 Sudeste 0 -- -- 79
2020-11-11 21:00:00 13.7 6 Este 10 Sudeste 0 -- -- 79
2020-11-11 20:00:00 13.6 6 Sudeste 7 Sudeste 0 -- -- 80
2020-11-11 19:00:00 14.1 6 Sudeste 10 Sudeste 0 -- -- 78
2020-11-11 18:00:00 16 5 Sudeste 10 Sudeste 0 -- -- 72
2020-11-11 17:00:00 18.8 7 Sudeste 14 Sudeste 0 -- -- 63
2020-11-11 16:00:00 18.6 9 Sudeste 17 Sudeste 0 -- -- 64
2020-11-11 15:00:00 18.3 11 Sudeste 18 Sudeste 0 -- -- 64
2020-11-11 14:00:00 18.5 13 Sudeste 26 Sudeste 0 -- -- 64
2020-11-11 13:00:00 18.1 16 Sudeste 29 Sudeste 0 -- -- 64
2020-11-11 12:00:00 16.3 19 Sudeste 31 Sudeste 0 -- -- 68
2020-11-11 11:00:00 15.4 21 Sudeste 31 Sudeste 0 -- -- 70
2020-11-11 10:00:00 13.5 18 Sudeste 28 Sudeste 0 -- -- 77
2020-11-11 09:00:00 11.4 18 Sudeste 23 Sudeste 0 -- -- 84
2020-11-11 08:00:00 9.6 15 Sudeste 21 Sudeste 0 -- -- 92
2020-11-11 07:00:00 9.4 15 Sudeste 21 Sudeste 0 -- -- 93
2020-11-11 06:00:00 9.5 15 Sudeste 21 Sudeste 0 -- -- 94
2020-11-11 05:00:00 9.5 15 Sudeste 19 Sudeste 0 -- -- 95
2020-11-11 04:00:00 9.7 12 Sudeste 16 Sudeste 0 -- -- 95
2020-11-11 03:00:00 9.5 6 Sudeste 8 Sudeste 0 -- -- 96
2020-11-11 02:00:00 9.6 0 Calma 9 Oeste 0 -- -- 99
2020-11-11 01:00:00 9.7 5 Este 7 Este 0 -- -- 98
2020-11-11 00:00:00 10.1 3 Noroeste 8 Oeste 0 -- -- 97
2020-11-10 23:00:00 11.3 4 Noroeste 8 Este 0 -- -- 92
2020-11-10 22:00:00 12.5 9 Este 12 Nordeste 0 -- -- 86
2020-11-10 21:00:00 12.3 6 Nordeste 11 Nordeste 0 -- -- 88
2020-11-10 20:00:00 13 8 Nordeste 9 Nordeste 0 -- -- 86
2020-11-10 19:00:00 13.9 5 Nordeste 6 Nordeste 0 -- -- 82
2020-11-10 18:00:00 16.3 4 Sudeste 10 Sudeste 0 -- -- 73
2020-11-10 17:00:00 19 5 Sudeste 11 Sudeste 0 -- -- 63
2020-11-10 16:00:00 18.9 8 Sudeste 16 Este 0 -- -- 62
2020-11-10 15:00:00 19.5 11 Sudeste 18 Sudeste 0 -- -- 64
2020-11-10 14:00:00 19.6 10 Sudeste 17 Este 0 -- -- 64
2020-11-10 13:00:00 17.9 10 Sudeste 17 Sudeste 0 -- -- 70
2020-11-10 12:00:00 16.7 9 Sudeste 16 Sudeste 0 -- -- 77
2020-11-10 11:00:00 13.8 6 Sudeste 11 Sudeste 0 -- -- 100
2020-11-10 10:00:00 9.4 0 Calma 5 Oeste 0.2 -- -- 100
2020-11-10 09:00:00 7.7 3 Oeste 5 Oeste 0 -- -- 100
2020-11-10 08:00:00 8.3 5 Sudeste 8 Sudeste 0 -- -- 100
2020-11-10 07:00:00 8.8 3 Nordeste 6 Norte 0 -- -- 100
2020-11-10 06:00:00 8.7 3 Noroeste 7 Noroeste 0 -- -- 100
2020-11-10 05:00:00 8.6 4 Noroeste 7 Noroeste 0 -- -- 100
2020-11-10 04:00:00 9.5 4 Noroeste 6 Noroeste 0 -- -- 100
2020-11-10 03:00:00 9.6 4 Oeste 6 Oeste 0 -- -- 100
2020-11-10 02:00:00 9.4 5 Noroeste 7 Noroeste 0 -- -- 99
2020-11-10 01:00:00 10 5 Noroeste 6 Norte 0 -- -- 98
2020-11-10 00:00:00 10.3 2 Noroeste 5 Noroeste 0 -- -- 99
2020-11-09 23:00:00 10.3 3 Noroeste 4 Norte 0 -- -- 98
2020-11-09 22:00:00 10.5 0 Calma 7 Noroeste 0 -- -- 97
2020-11-09 21:00:00 11.4 8 Norte 9 Norte 0 -- -- 95
2020-11-09 20:00:00 11.7 6 Norte 8 Norte 0 -- -- 95
2020-11-09 19:00:00 12.6 5 Norte 10 Oeste 0 -- -- 91
2020-11-09 18:00:00 13.9 6 Oeste 10 Oeste 0 -- -- 84
2020-11-09 17:00:00 16 4 Noroeste 7 Sudoeste 0 -- -- 74
2020-11-09 16:00:00 16.9 7 Sudoeste 12 Sudoeste 0 -- -- 69
2020-11-09 15:00:00 17.5 8 Sudoeste 13 Sudoeste 0 -- -- 71
2020-11-09 14:00:00 18.2 5 Sudoeste 14 Sudoeste 0 -- -- 69
2020-11-09 13:00:00 17.8 4 Sur 11 Sur 0 -- -- 72
2020-11-09 12:00:00 14.7 4 Sudoeste 9 Noroeste 0 -- -- 85
2020-11-09 11:00:00 13.5 6 Oeste 10 Oeste 0.2 -- -- 97
2020-11-09 10:00:00 12.2 3 Norte 9 Noroeste 0 -- -- 100
2020-11-09 09:00:00 11.7 5 Noroeste 8 Noroeste 0 -- -- 100
2020-11-09 08:00:00 11 3 Noroeste 8 Oeste 0 -- -- 100
2020-11-09 07:00:00 11.3 0 Calma 5 Norte 0 -- -- 100
2020-11-09 06:00:00 11.3 3 Norte 6 Oeste 0 -- -- 100
2020-11-09 05:00:00 11.5 3 Oeste 6 Oeste 0 -- -- 100
2020-11-09 04:00:00 12.8 5 Oeste 12 Oeste 0 -- -- 100
2020-11-09 03:00:00 13.4 4 Oeste 10 Sudoeste 0.8 -- -- 100
2020-11-09 02:00:00 13.4 4 Sur 10 Sur 1 -- -- 100
2020-11-09 01:00:00 13.4 8 Sudeste 16 Sudeste 5.8 -- -- 100
2020-11-09 00:00:00 13.5 7 Sudeste 14 Sudeste 1.8 -- -- 99
2020-11-08 23:00:00 13.4 8 Sudeste 21 Sur 0.4 -- -- 99
2020-11-08 22:00:00 13.5 11 Sudeste 17 Sudeste 0.2 -- -- 99
2020-11-08 21:00:00 13.6 7 Sudeste 16 Sudeste 2.4 -- -- 98
2020-11-08 20:00:00 13.8 4 Sur 10 Sur 3 -- -- 97
2020-11-08 19:00:00 14.1 4 Oeste 19 Oeste 3 -- -- 95
2020-11-08 18:00:00 15 12 Sur 26 Sur 0.2 -- -- 86
2020-11-08 17:00:00 16.2 12 Sudeste 23 Sudeste 0 -- -- 78
2020-11-08 16:00:00 17.6 16 Sudeste 28 Sudeste 0 -- -- 72
2020-11-08 15:00:00 18.4 18 Sudeste 30 Sudeste 0 -- -- 70
2020-11-08 14:00:00 16.3 14 Sudeste 25 Sudeste 0 -- -- 82
2020-11-08 13:00:00 15.8 14 Sudeste 27 Sudeste 0 -- -- 86
2020-11-08 12:00:00 15 17 Sudeste 27 Sudeste 0 -- -- 87
2020-11-08 11:00:00 13.3 18 Sudeste 29 Sudeste 0 -- -- 91
2020-11-08 10:00:00 12.2 19 Sudeste 27 Sudeste 0 -- -- 96
2020-11-08 09:00:00 11.3 19 Sudeste 30 Este 0 -- -- 99
2020-11-08 08:00:00 10.9 21 Sudeste 30 Sudeste 0 -- -- 99
2020-11-08 07:00:00 10.9 19 Sudeste 28 Sudeste 0 -- -- 99
2020-11-08 06:00:00 10.7 15 Sudeste 24 Sudeste 0 -- -- 99
2020-11-08 05:00:00 10.8 14 Sudeste 21 Sudeste 0 -- -- 99
2020-11-08 04:00:00 10.4 13 Sudeste 19 Sudeste 0 -- -- 99
2020-11-08 03:00:00 10.3 12 Sudeste 17 Sudeste 0 -- -- 98
2020-11-08 02:00:00 10.9 10 Sudeste 16 Sudeste 0 -- -- 96
2020-11-08 01:00:00 10.7 8 Sudeste 14 Sudeste 0 -- -- 95
2020-11-08 00:00:00 11.3 8 Sudeste 19 Sur 0 -- -- 93
2020-11-07 23:00:00 11.5 9 Sudeste 18 Sudeste 0 -- -- 90
2020-11-07 22:00:00 12.6 10 Sudeste 15 Sudeste 0 -- -- 85
2020-11-07 21:00:00 12.3 10 Sudeste 12 Sudeste 0 -- -- 87
2020-11-07 20:00:00 12.2 8 Sudeste 15 Sudeste 0 -- -- 85
2020-11-07 19:00:00 13.6 9 Sudeste 15 Sur 0 -- -- 79
2020-11-07 18:00:00 15.3 9 Sur 25 Sur 0 -- -- 71
2020-11-07 17:00:00 17 16 Sur 27 Sur 0 -- -- 65
2020-11-07 16:00:00 17.7 15 Sudoeste 25 Sur 0 -- -- 65
2020-11-07 15:00:00 16.7 15 Sudoeste 27 Oeste 0 -- -- 70
2020-11-07 14:00:00 15.6 17 Sudoeste 32 Sudoeste 0 -- -- 75
2020-11-07 13:00:00 15.9 15 Sudoeste 26 Sudoeste 0 -- -- 77
2020-11-07 12:00:00 14 17 Sudoeste 31 Sudoeste 0 -- -- 86
2020-11-07 11:00:00 12.1 10 Sudoeste 24 Sudoeste 0 -- -- 95
2020-11-07 10:00:00 11.9 20 Sudoeste 30 Sudoeste 0 -- -- 97
2020-11-07 09:00:00 11.7 12 Sudoeste 23 Sudoeste 0.6 -- -- 99
2020-11-07 08:00:00 11.4 8 Sudoeste 17 Sur 0.2 -- -- 98
2020-11-07 07:00:00 11.6 13 Sur 25 Sur 0.6 -- -- 98
2020-11-07 06:00:00 11.6 12 Sur 23 Sur 0 -- -- 98
2020-11-07 05:00:00 12 9 Sudeste 19 Sudeste 0.6 -- -- 99
2020-11-07 04:00:00 12 13 Sudeste 26 Sudeste 0 -- -- 99
2020-11-07 03:00:00 11.8 7 Sudeste 14 Este 0 -- -- 98
2020-11-07 02:00:00 11.9 7 Sudeste 24 Sudoeste 6.4 -- -- 97
2020-11-07 01:00:00 12.8 6 Sur 17 Sudoeste 3 -- -- 94
2020-11-07 00:00:00 12.6 9 Sudeste 23 Sudeste 0.2 -- -- 89
2020-11-06 23:00:00 12.5 16 Sudeste 23 Sudeste 0 -- -- 87
2020-11-06 22:00:00 12.8 10 Sudeste 21 Sur 0 -- -- 85
2020-11-06 21:00:00 13.9 14 Sur 30 Sudoeste 0 -- -- 77
2020-11-06 20:00:00 13.4 20 Sur 30 Sur 0 -- -- 80
2020-11-06 19:00:00 13.1 11 Sudoeste 32 Sudoeste 0 -- -- 83
2020-11-06 18:00:00 13.7 21 Sudoeste 51 Sudoeste 0 -- -- 77
2020-11-06 17:00:00 16.9 17 Sudeste 27 Sudeste 0 -- -- 78
2020-11-06 16:00:00 17.5 12 Sudeste 24 Sudeste 0 -- -- 74
2020-11-06 15:00:00 18.3 15 Sudeste 26 Sudeste 0 -- -- 69
2020-11-06 14:00:00 18 13 Sudeste 33 Sudeste 0 -- -- 69
2020-11-06 13:00:00 17.5 23 Sudeste 35 Sudeste 0 -- -- 72
2020-11-06 12:00:00 16 22 Sudeste 43 Sudeste 0 -- -- 74
2020-11-06 11:00:00 15.8 26 Sudeste 50 Este 0 -- -- 70
2020-11-06 10:00:00 15.7 28 Sudeste 49 Este 0 -- -- 68
2020-11-06 09:00:00 16.4 22 Este 37 Este 0 -- -- 63
2020-11-06 08:00:00 13.6 9 Sudeste 17 Sudeste 0 -- -- 81
2020-11-06 07:00:00 14.4 13 Este 28 Este 0 -- -- 77
2020-11-06 06:00:00 14 14 Sudeste 25 Sudeste 0.2 -- -- 81
2020-11-06 05:00:00 13.5 18 Sudeste 25 Sudeste 0 -- -- 84
2020-11-06 04:00:00 13.1 18 Sudeste 26 Sudeste 0 -- -- 88
2020-11-06 03:00:00 12.8 17 Sudeste 26 Sudeste 0 -- -- 91
2020-11-06 02:00:00 12.6 15 Sudeste 28 Sudeste 0 -- -- 92
2020-11-06 01:00:00 12.7 14 Sudeste 29 Sudeste 0 -- -- 91
2020-11-06 00:00:00 13.2 17 Sudeste 34 Sudeste 0 -- -- 88
2020-11-05 23:00:00 12.1 16 Sudeste 30 Sudeste 0 -- -- 91
2020-11-05 22:00:00 12.1 19 Sudeste 39 Sudeste 0 -- -- 89
2020-11-05 21:00:00 12.5 24 Sudeste 40 Sudeste 0 -- -- 84
2020-11-05 20:00:00 11.9 18 Sudeste 36 Este 0 -- -- 89
2020-11-05 19:00:00 11.9 21 Sudeste 36 Sudeste 0 -- -- 90
2020-11-05 18:00:00 12.6 26 Sudeste 41 Este 0 -- -- 89
2020-11-05 17:00:00 12.5 21 Sudeste 33 Este 0 -- -- 92
2020-11-05 16:00:00 12.4 21 Sudeste 39 Este 0 -- -- 97
2020-11-05 15:00:00 13.3 22 Sudeste 38 Sudeste 0 -- -- 97
2020-11-05 14:00:00 13.7 23 Este 41 Sudeste 0.4 -- -- 96
2020-11-05 13:00:00 13.8 23 Sudeste 34 Este 0.8 -- -- 95
2020-11-05 12:00:00 13.4 19 Sudeste 38 Sudeste 0 -- -- 93
2020-11-05 11:00:00 13.3 22 Sudeste 40 Sudeste 0 -- -- 98
2020-11-05 10:00:00 12.4 24 Sudeste 49 Este 0.8 -- -- 99
2020-11-05 09:00:00 12.1 18 Sudeste 35 Este 3.2 -- -- 98
2020-11-05 08:00:00 12.2 21 Este 48 Este 1 -- -- 97
2020-11-05 07:00:00 12.5 26 Este 60 Este 1.2 -- -- 93
2020-11-05 06:00:00 12.3 25 Este 47 Este 1.8 -- -- 93
2020-11-05 05:00:00 11.9 28 Este 56 Este 1.4 -- -- 95
2020-11-05 04:00:00 12 22 Este 54 Este 2.2 -- -- 94
2020-11-05 03:00:00 12.5 23 Este 38 Sudeste 0.4 -- -- 91
2020-11-05 02:00:00 12.3 14 Este 39 Sudeste 1 -- -- 93
2020-11-05 01:00:00 12.3 9 Este 23 Este 0 -- -- 97
2020-11-05 00:00:00 11.5 8 Nordeste 20 Este 0 -- -- 98
2020-11-04 23:00:00 11.4 5 Este 31 Este 2.2 -- -- 99
2020-11-04 22:00:00 11.6 17 Sudeste 26 Este 2.2 -- -- 99
2020-11-04 21:00:00 11.7 6 Este 21 Nordeste 0 -- -- 100
2020-11-04 20:00:00 11.1 10 Nordeste 28 Nordeste 0 -- -- 100
2020-11-04 19:00:00 11.3 8 Nordeste 20 Norte 5.2 -- -- 99
2020-11-04 18:00:00 11.6 6 Nordeste 23 Nordeste 5.6 -- -- 98
2020-11-04 17:00:00 12.9 13 Nordeste 22 Nordeste 0 -- -- 93
2020-11-04 16:00:00 12.2 11 Nordeste 22 Norte 0 -- -- 94
2020-11-04 15:00:00 11.9 9 Nordeste 19 Nordeste 0.4 -- -- 96
2020-11-04 14:00:00 13 9 Nordeste 17 Nordeste 0 -- -- 89
2020-11-04 13:00:00 14 4 Nordeste 16 Nordeste 0.2 -- -- 86
2020-11-04 12:00:00 13.9 9 Norte 17 Norte 0 -- -- 82
2020-11-04 11:00:00 13.5 10 Nordeste 19 Norte 0 -- -- 82
2020-11-04 10:00:00 12.2 8 Norte 15 Nordeste 0 -- -- 87
2020-11-04 09:00:00 11.5 6 Norte 10 Norte 0 -- -- 89
2020-11-04 08:00:00 11.4 5 Norte 10 Norte 0 -- -- 91
2020-11-04 07:00:00 11.6 4 Oeste 9 Oeste 0 -- -- 97
2020-11-04 06:00:00 11.8 2 Noroeste 10 Norte 0 -- -- 95
2020-11-04 05:00:00 11.9 5 Noroeste 8 Oeste 0 -- -- 94
2020-11-04 04:00:00 11.8 2 Noroeste 10 Noroeste 0 -- -- 94
2020-11-04 03:00:00 11.1 4 Oeste 9 Noroeste 0 -- -- 95
2020-11-04 02:00:00 11.1 3 Noroeste 8 Noroeste 0 -- -- 94
2020-11-04 01:00:00 12.2 4 Oeste 10 Noroeste 0 -- -- 92
2020-11-04 00:00:00 12.9 4 Oeste 10 Oeste 0 -- -- 91
2020-11-03 23:00:00 13 8 Noroeste 10 Noroeste 0 -- -- 90
2020-11-03 22:00:00 13.5 4 Oeste 8 Noroeste 0 -- -- 89
2020-11-03 21:00:00 13.5 5 Oeste 8 Noroeste 0 -- -- 88
2020-11-03 20:00:00 15.2 6 Norte 10 Noroeste 0 -- -- 82
2020-11-03 19:00:00 16.4 4 Noroeste 8 Noroeste 0 -- -- 83
2020-11-03 18:00:00 18.2 3 Norte 12 Norte 0 -- -- 77
2020-11-03 17:00:00 20.1 6 Norte 15 Noroeste 0 -- -- 69
2020-11-03 16:00:00 18.9 7 Norte 17 Noroeste 0 -- -- 71
2020-11-03 15:00:00 18.2 8 Norte 20 Norte 0 -- -- 77
2020-11-03 14:00:00 17.7 10 Norte 22 Norte 0 -- -- 79
2020-11-03 13:00:00 17 10 Norte 16 Norte 0 -- -- 71
2020-11-03 12:00:00 15.6 9 Noroeste 14 Noroeste 0 -- -- 74
2020-11-03 11:00:00 14.7 9 Noroeste 16 Noroeste 0 -- -- 79
2020-11-03 10:00:00 13.3 9 Noroeste 17 Norte 0 -- -- 88
2020-11-03 09:00:00 12.9 11 Noroeste 18 Norte 0.2 -- -- 98
2020-11-03 08:00:00 13.9 12 Noroeste 22 Noroeste 0 -- -- 99
2020-11-03 07:00:00 14.3 8 Noroeste 21 Noroeste 0 -- -- 99
2020-11-03 06:00:00 14.7 9 Noroeste 18 Noroeste 0 -- -- 99
2020-11-03 05:00:00 14.9 8 Noroeste 15 Oeste 0 -- -- 99
2020-11-03 04:00:00 15.1 10 Noroeste 17 Noroeste 0 -- -- 99
2020-11-03 03:00:00 15.1 11 Noroeste 18 Noroeste 0 -- -- 98
2020-11-03 02:00:00 15.1 8 Noroeste 14 Noroeste 0 -- -- 98
2020-11-03 01:00:00 14.9 7 Noroeste 10 Oeste 0 -- -- 97
2020-11-03 00:00:00 15.1 4 Norte 10 Noroeste 0 -- -- 96
2020-11-02 23:00:00 15.3 4 Noroeste 12 Noroeste 0 -- -- 97
2020-11-02 22:00:00 15.4 6 Oeste 10 Noroeste 0 -- -- 96
2020-11-02 21:00:00 16 5 Noroeste 13 Noroeste 0 -- -- 94
2020-11-02 20:00:00 16.1 6 Noroeste 12 Oeste 0 -- -- 93
2020-11-02 19:00:00 16.7 8 Noroeste 13 Noroeste 0 -- -- 91
2020-11-02 18:00:00 17.7 9 Noroeste 15 Noroeste 0 -- -- 85
2020-11-02 17:00:00 19.3 7 Noroeste 11 Noroeste 0 -- -- 81
2020-11-02 16:00:00 20.5 4 Noroeste 9 Noroeste 0 -- -- 75
2020-11-02 15:00:00 20.8 4 Oeste 8 Oeste 0 -- -- 73
2020-11-02 14:00:00 20.8 6 Sudoeste 18 Sur 0 -- -- 73
2020-11-02 13:00:00 20.4 4 Oeste 9 Oeste 0 -- -- 73
2020-11-02 12:00:00 19.6 0 Calma 6 Noroeste 0 -- -- 77
2020-11-02 11:00:00 17.9 0 Calma 8 Sudeste 0 -- -- 85
2020-11-02 10:00:00 15.9 4 Sudeste 6 Sudeste 0 -- -- 91
2020-11-02 09:00:00 14.3 5 Sudeste 10 Sudeste 0 -- -- 95
2020-11-02 08:00:00 13.6 4 Sudeste 6 Sudeste 0 -- -- 97
2020-11-02 07:00:00 14.2 0 Calma 5 Sudeste 0 -- -- 97
2020-11-02 06:00:00 14.3 0 Calma 5 Oeste 0 -- -- 97
2020-11-02 05:00:00 14.4 2 Oeste 4 Noroeste 0 -- -- 97
2020-11-02 04:00:00 14.1 4 Noroeste 5 Noroeste 0 -- -- 97
2020-11-02 03:00:00 13.9 4 Noroeste 6 Noroeste 0 -- -- 96
2020-11-02 02:00:00 13.7 4 Noroeste 5 Noroeste 0 -- -- 96
2020-11-02 01:00:00 14.5 4 Oeste 7 Oeste 0 -- -- 94
2020-11-02 00:00:00 14.8 4 Oeste 7 Oeste 0 -- -- 94
2020-11-01 23:00:00 15 5 Oeste 8 Oeste 0 -- -- 93
2020-11-01 22:00:00 15.5 4 Oeste 11 Noroeste 0 -- -- 89
2020-11-01 21:00:00 16.4 5 Norte 6 Norte 0 -- -- 85
2020-11-01 20:00:00 16.9 4 Oeste 7 Oeste 0 -- -- 81
2020-11-01 19:00:00 18 4 Oeste 8 Sudoeste 0 -- -- 74
2020-11-01 18:00:00 20.1 3 Sudoeste 9 Oeste 0 -- -- 68
2020-11-01 17:00:00 22.1 4 Oeste 13 Sudoeste 0 -- -- 59
2020-11-01 16:00:00 23.3 6 Sudoeste 15 Sudoeste 0 -- -- 56
2020-11-01 15:00:00 23.2 3 Noroeste 11 Sudeste 0 -- -- 52
2020-11-01 14:00:00 22.6 4 Sur 13 Sudoeste 0 -- -- 60
2020-11-01 13:00:00 22 5 Sur 12 Sudeste 0 -- -- 65
2020-11-01 12:00:00 21 5 Sudeste 10 Sur 0 -- -- 67
2020-11-01 11:00:00 19 4 Sudeste 10 Sudeste 0 -- -- 75
2020-11-01 10:00:00 16.7 4 Sudeste 8 Sudeste 0 -- -- 86
2020-11-01 09:00:00 14.3 2 Nordeste 4 Norte 0 -- -- 97
2020-11-01 08:00:00 12.9 3 Sudoeste 6 Oeste 0 -- -- 98
2020-11-01 07:00:00 12.3 4 Oeste 5 Oeste 0 -- -- 96
2020-11-01 06:00:00 12.7 2 Oeste 5 Noroeste 0 -- -- 97
2020-11-01 05:00:00 12.7 4 Noroeste 9 Oeste 0 -- -- 96
2020-11-01 04:00:00 13.1 5 Oeste 6 Oeste 0 -- -- 94
2020-11-01 03:00:00 13.4 4 Norte 7 Noroeste 0 -- -- 93
2020-11-01 02:00:00 13.1 6 Norte 7 Noroeste 0 -- -- 92
2020-11-01 01:00:00 13.9 4 Noroeste 6 Noroeste 0 -- -- 85
2020-11-01 00:00:00 14.5 4 Noroeste 8 Noroeste 0 -- -- 81
2020-10-31 23:00:00 15 4 Oeste 5 Oeste 0 -- -- 80
2020-10-31 22:00:00 16.2 4 Noroeste 8 Noroeste 0 -- -- 75
2020-10-31 21:00:00 16.2 6 Oeste 7 Oeste 0 -- -- 74
2020-10-31 20:00:00 16.7 5 Oeste 7 Noroeste 0 -- -- 73
2020-10-31 19:00:00 18.2 6 Noroeste 9 Noroeste 0 -- -- 66
2020-10-31 18:00:00 21.6 5 Noroeste 12 Noroeste 0 -- -- 56
2020-10-31 17:00:00 24.2 6 Oeste 15 Oeste 0 -- -- 48
2020-10-31 16:00:00 24.5 5 Sudoeste 14 Oeste 0 -- -- 50
2020-10-31 15:00:00 24 5 Noroeste 13 Noroeste 0 -- -- 51
2020-10-31 14:00:00 23.8 6 Oeste 13 Noroeste 0 -- -- 49
2020-10-31 13:00:00 23.1 5 Sudoeste 12 Oeste 0 -- -- 48
2020-10-31 12:00:00 22.3 3 Sudoeste 14 Sudeste 0 -- -- 55
2020-10-31 11:00:00 19.3 4 Sudeste 10 Sudeste 0 -- -- 72
2020-10-31 10:00:00 14.9 3 Oeste 8 Oeste 0 -- -- 86
2020-10-31 09:00:00 12.1 4 Noroeste 9 Noroeste 0 -- -- 93
2020-10-31 08:00:00 11.2 0 Calma 9 Oeste 0 -- -- 94
2020-10-31 07:00:00 14.2 3 Nordeste 5 Oeste 0 -- -- 84
2020-10-31 06:00:00 13.2 3 Oeste 8 Oeste 0 -- -- 88
2020-10-31 05:00:00 13 3 Oeste 8 Oeste 0 -- -- 89
2020-10-31 04:00:00 13 4 Oeste 8 Oeste 0 -- -- 90
2020-10-31 03:00:00 12.8 4 Oeste 7 Oeste 0 -- -- 91
2020-10-31 02:00:00 13.5 3 Oeste 7 Noroeste 0 -- -- 88
2020-10-31 01:00:00 14 4 Noroeste 8 Oeste 0 -- -- 84
2020-10-31 00:00:00 13.9 5 Sudoeste 7 Oeste 0 -- -- 83
2020-10-30 23:00:00 14.7 4 Noroeste 8 Noroeste 0 -- -- 81
2020-10-30 22:00:00 15.6 4 Noroeste 7 Nordeste 0 -- -- 76
2020-10-30 21:00:00 17.4 7 Nordeste 12 Norte 0 -- -- 69
2020-10-30 20:00:00 17.8 4 Sudeste 10 Norte 0 -- -- 64
2020-10-30 19:00:00 18.8 5 Sudeste 8 Sudeste 0 -- -- 60
2020-10-30 18:00:00 21.8 6 Sudeste 15 Este 0 -- -- 53
2020-10-30 17:00:00 24.4 11 Sudeste 17 Este 0 -- -- 43
2020-10-30 16:00:00 24.7 12 Sudeste 20 Sudeste 0 -- -- 45
2020-10-30 15:00:00 24.7 11 Sudeste 21 Sudeste 0 -- -- 45
2020-10-30 14:00:00 23.7 14 Sudeste 22 Sudeste 0 -- -- 50
2020-10-30 13:00:00 23.3 13 Sudeste 23 Sudeste 0 -- -- 52
2020-10-30 12:00:00 21 13 Sudeste 26 Sudeste 0 -- -- 59
2020-10-30 11:00:00 19.6 19 Sudeste 32 Este 0 -- -- 61
2020-10-30 10:00:00 18.1 18 Sudeste 28 Sudeste 0 -- -- 67
2020-10-30 09:00:00 15.6 12 Sudeste 21 Sudeste 0 -- -- 76
2020-10-30 08:00:00 13.4 15 Sudeste 23 Sudeste 0 -- -- 83
2020-10-30 07:00:00 13.6 15 Sudeste 21 Sudeste 0 -- -- 84
2020-10-30 06:00:00 13.9 15 Sudeste 23 Sudeste 0 -- -- 85
2020-10-30 05:00:00 13.9 16 Sudeste 21 Sudeste 0 -- -- 85
2020-10-30 04:00:00 14.4 15 Sudeste 20 Sudeste 0 -- -- 84
2020-10-30 03:00:00 14.8 16 Sudeste 23 Sudeste 0 -- -- 83
2020-10-30 02:00:00 15 15 Sudeste 22 Sudeste 0 -- -- 82
2020-10-30 01:00:00 15.2 14 Sudeste 21 Sudeste 0 -- -- 82
2020-10-30 00:00:00 15.5 15 Sudeste 20 Sudeste 0 -- -- 80
2020-10-29 23:00:00 15 10 Sudeste 13 Sudeste 0 -- -- 82
2020-10-29 22:00:00 15.5 4 Este 10 Sudeste 0 -- -- 82
2020-10-29 21:00:00 15.3 8 Sudeste 11 Sudeste 0 -- -- 84
2020-10-29 20:00:00 15.6 6 Sudeste 11 Sudeste 0 -- -- 84
2020-10-29 19:00:00 16.9 8 Sudeste 11 Sudeste 0 -- -- 79
2020-10-29 18:00:00 19.9 8 Sudeste 14 Sudeste 0 -- -- 68
2020-10-29 17:00:00 21.6 7 Sudeste 21 Sudeste 0 -- -- 61
2020-10-29 16:00:00 22 13 Sudeste 28 Sudeste 0 -- -- 61
2020-10-29 15:00:00 21.4 17 Sudeste 32 Sudeste 0 -- -- 62
2020-10-29 14:00:00 20.7 20 Sudeste 36 Este 0 -- -- 64
2020-10-29 13:00:00 19.4 21 Sudeste 32 Sudeste 0 -- -- 68
2020-10-29 12:00:00 18.3 21 Sudeste 32 Sudeste 0 -- -- 71
2020-10-29 11:00:00 17.3 17 Sudeste 30 Sudeste 0 -- -- 77
2020-10-29 10:00:00 16.3 13 Sudeste 19 Sudeste 0 -- -- 86
2020-10-29 09:00:00 14 5 Sudeste 9 Sudeste 0 -- -- 97
2020-10-29 08:00:00 13.1 5 Sudeste 7 Sudeste 0 -- -- 99
2020-10-29 07:00:00 12.8 4 Sudeste 14 Sudeste 0 -- -- 99
2020-10-29 06:00:00 12.5 9 Sudeste 14 Sudeste 0 -- -- 99
2020-10-29 05:00:00 12.7 9 Sudeste 12 Sudeste 0 -- -- 97
2020-10-29 04:00:00 13 9 Sudeste 12 Sudeste 0 -- -- 97
2020-10-29 03:00:00 13.6 4 Sudeste 8 Sudeste 0 -- -- 95
2020-10-29 02:00:00 13.7 3 Este 4 Sudeste 0 -- -- 94
2020-10-29 01:00:00 13.6 5 Sudeste 6 Sudeste 0 -- -- 93
2020-10-29 00:00:00 14.4 0 Calma 3 Sudeste 0 -- -- 91
2020-10-28 23:00:00 14.4 0 Calma 3 Sudeste 0 -- -- 92
2020-10-28 22:00:00 14.6 3 Sudeste 4 Sudeste 0 -- -- 90
2020-10-28 21:00:00 15 0 Calma 4 Norte 0 -- -- 89
2020-10-28 20:00:00 15.3 0 Calma 5 Sudoeste 0 -- -- 88
2020-10-28 19:00:00 15.2 4 Sur 10 Noroeste 0 -- -- 86
2020-10-28 18:00:00 16.5 6 Oeste 11 Oeste 0 -- -- 81
2020-10-28 17:00:00 16.7 6 Sudoeste 12 Sudoeste 0 -- -- 80
2020-10-28 16:00:00 17 6 Sudoeste 14 Oeste 0 -- -- 79
2020-10-28 15:00:00 17.8 7 Sur 14 Sur 0 -- -- 74
2020-10-28 14:00:00 17.6 4 Sur 14 Sur 0 -- -- 75
2020-10-28 13:00:00 17.3 7 Sur 15 Sudoeste 0 -- -- 75
2020-10-28 12:00:00 15.9 6 Sudoeste 14 Sudoeste 0 -- -- 79
2020-10-28 11:00:00 15.5 6 Sudoeste 13 Sudoeste 0 -- -- 78
2020-10-28 10:00:00 15.5 5 Sur 12 Sudoeste 0 -- -- 77
2020-10-28 09:00:00 12.6 5 Sur 9 Sudoeste 0 -- -- 88
2020-10-28 08:00:00 12.3 4 Sudoeste 7 Sudoeste 0 -- -- 91
2020-10-28 07:00:00 12.3 4 Sur 8 Sudoeste 0 -- -- 92
2020-10-28 06:00:00 12.5 3 Oeste 8 Sudoeste 0 -- -- 90
2020-10-28 05:00:00 12.5 4 Oeste 8 Oeste 0 -- -- 90
2020-10-28 04:00:00 12.5 3 Noroeste 9 Oeste 0 -- -- 87
2020-10-28 03:00:00 12.7 4 Oeste 9 Oeste 0 -- -- 85
2020-10-28 02:00:00 12.7 5 Oeste 9 Oeste 0 -- -- 84
2020-10-28 01:00:00 12.6 4 Oeste 9 Sudoeste 0 -- -- 84
2020-10-28 00:00:00 12.7 2 Noroeste 5 Sudoeste 0 -- -- 82